createdAt,value
2022-12-19T00:01:32.487Z,74.92
2022-12-19T00:03:35.177Z,74.72
2022-12-19T00:05:39.318Z,74.44
2022-12-19T00:07:41.223Z,75.18
2022-12-19T00:09:43.137Z,75.39
2022-12-19T00:11:47.858Z,76.06
2022-12-19T00:13:51.585Z,75.31
2022-12-19T00:15:53.744Z,74.71
2022-12-19T00:17:55.676Z,75.05
2022-12-19T00:19:57.606Z,75.47
2022-12-19T00:21:59.562Z,74.85
2022-12-19T00:24:02.099Z,74.97
2022-12-19T00:26:21.639Z,75.18
2022-12-19T00:28:23.590Z,75.34
2022-12-19T00:30:25.618Z,74.85
2022-12-19T00:32:28.077Z,75.99
2022-12-19T00:34:29.986Z,74.99
2022-12-19T00:36:34.238Z,75.45
2022-12-19T00:38:36.089Z,75.14
2022-12-19T00:40:37.958Z,75.05
2022-12-19T00:42:39.942Z,75.04
2022-12-19T00:44:42.881Z,75.02
2022-12-19T00:46:51.505Z,75.52
2022-12-19T00:48:55.374Z,74.84
2022-12-19T00:51:02.414Z,75.74
2022-12-19T00:53:04.294Z,76.19
2022-12-19T00:55:09.260Z,75.69
2022-12-19T00:57:20.298Z,75.39
2022-12-19T00:59:26.378Z,75.79
2022-12-19T01:01:34.946Z,76.03
2022-12-19T01:03:37.098Z,75.32
2022-12-19T01:05:42.053Z,75.84
2022-12-19T01:07:44.096Z,76.13
2022-12-19T01:09:46.000Z,75.95
2022-12-19T01:12:09.207Z,75.87
2022-12-19T01:14:17.427Z,76.11
2022-12-19T01:16:22.862Z,75.53
2022-12-19T01:18:24.752Z,75.88
2022-12-19T01:20:29.547Z,75.63
2022-12-19T01:22:31.819Z,75.66
2022-12-19T01:24:33.670Z,75.65
2022-12-19T01:26:35.606Z,75.14
2022-12-19T01:28:37.493Z,75.67
2022-12-19T01:30:40.293Z,75.37
2022-12-19T01:32:43.633Z,75.01
2022-12-19T01:34:45.581Z,75.78
2022-12-19T01:36:47.506Z,75.09
2022-12-19T01:38:49.441Z,74.77
2022-12-19T01:40:53.300Z,75.25
2022-12-19T01:42:55.193Z,75.78
2022-12-19T01:45:13.391Z,74.72
2022-12-19T01:47:15.735Z,75.48
2022-12-19T01:49:25.943Z,75.13
2022-12-19T01:51:41.723Z,75.08
2022-12-19T01:53:49.676Z,75.08
2022-12-19T01:55:53.097Z,74.31
2022-12-19T01:57:57.290Z,74.54
2022-12-19T02:00:01.424Z,74.66
2022-12-19T02:02:26.977Z,74.66
2022-12-19T02:04:32.721Z,74.99
2022-12-19T02:06:35.333Z,75.35
2022-12-19T02:08:38.045Z,74.94
2022-12-19T02:10:40.003Z,74.71
2022-12-19T02:12:44.454Z,75.02
2022-12-19T02:14:47.260Z,75.01
2022-12-19T02:17:00.992Z,75.20
2022-12-19T02:19:27.444Z,75.04
2022-12-19T02:21:29.253Z,74.28
2022-12-19T02:24:18.146Z,75.05
2022-12-19T02:26:40.332Z,75.20
2022-12-19T02:29:00.889Z,75.24
2022-12-19T02:31:20.034Z,75.00
2022-12-19T02:33:39.310Z,75.01
2022-12-19T02:35:47.090Z,74.78
2022-12-19T02:37:56.030Z,74.65
2022-12-19T02:40:09.608Z,74.51
2022-12-19T02:42:15.455Z,74.55
2022-12-19T02:44:33.801Z,74.97
2022-12-19T02:46:35.742Z,75.46
2022-12-19T02:48:38.390Z,74.80
2022-12-19T02:50:46.610Z,74.40
2022-12-19T02:52:51.868Z,75.04
2022-12-19T02:54:58.043Z,75.41
2022-12-19T02:57:15.497Z,75.09
2022-12-19T02:59:56.263Z,75.20
2022-12-19T03:02:13.338Z,75.17
2022-12-19T03:04:33.448Z,74.83
2022-12-19T03:06:44.168Z,75.90
2022-12-19T03:08:59.348Z,75.88
2022-12-19T03:11:04.093Z,75.93
2022-12-19T03:13:23.161Z,75.37
2022-12-19T03:15:26.505Z,75.25
2022-12-19T03:17:29.307Z,76.01
2022-12-19T03:19:32.223Z,75.89
2022-12-19T03:21:44.795Z,75.74
2022-12-19T03:23:48.297Z,75.95
2022-12-19T03:26:01.585Z,75.57
2022-12-19T03:28:12.535Z,76.17
2022-12-19T03:30:15.950Z,75.48
2022-12-19T03:32:18.951Z,76.48
2022-12-19T03:34:31.419Z,75.75
2022-12-19T03:36:40.410Z,75.61
2022-12-19T03:38:45.537Z,76.13
2022-12-19T03:40:49.359Z,75.80
2022-12-19T03:43:12.311Z,76.41
2022-12-19T03:45:24.229Z,75.94
2022-12-19T03:47:58.806Z,76.55
2022-12-19T03:50:00.810Z,75.44
2022-12-19T03:52:11.753Z,76.35
2022-12-19T03:54:30.261Z,75.74
2022-12-19T03:56:56.211Z,75.34
2022-12-19T03:59:03.789Z,76.21
2022-12-19T04:01:06.856Z,76.24
2022-12-19T04:03:10.479Z,75.91
2022-12-19T04:05:18.361Z,75.68
2022-12-19T04:07:21.597Z,75.94
2022-12-19T04:09:25.650Z,75.83
2022-12-19T04:11:34.674Z,76.13
2022-12-19T04:13:43.975Z,76.07
2022-12-19T04:15:51.073Z,76.18
2022-12-19T04:17:58.122Z,75.52
2022-12-19T04:20:05.250Z,75.63
2022-12-19T04:22:22.989Z,76.46
2022-12-19T04:24:30.807Z,76.29
2022-12-19T04:26:36.867Z,76.37
2022-12-19T04:28:43.853Z,75.90
2022-12-19T04:30:46.824Z,75.33
2022-12-19T04:32:50.823Z,76.07
2022-12-19T04:34:53.696Z,75.35
2022-12-19T04:36:55.773Z,75.82
2022-12-19T04:38:58.325Z,76.08
2022-12-19T04:41:00.195Z,76.26
2022-12-19T04:43:02.245Z,75.62
2022-12-19T04:45:06.567Z,76.22
2022-12-19T04:47:08.820Z,76.19
2022-12-19T04:49:10.749Z,75.96
2022-12-19T04:51:12.773Z,75.22
2022-12-19T04:53:15.704Z,75.91
2022-12-19T04:55:17.594Z,75.41
2022-12-19T04:57:19.547Z,75.67
2022-12-19T04:59:21.461Z,76.01
2022-12-19T05:01:23.345Z,75.06
2022-12-19T05:03:25.352Z,75.99
2022-12-19T05:05:27.344Z,75.68
2022-12-19T05:07:29.336Z,75.59
2022-12-19T05:09:31.220Z,75.63
2022-12-19T05:11:34.177Z,75.91
2022-12-19T05:13:36.389Z,76.08
2022-12-19T05:15:38.401Z,75.26
2022-12-19T05:17:41.255Z,75.20
2022-12-19T05:19:43.157Z,74.81
2022-12-19T05:21:45.611Z,75.04
2022-12-19T05:23:47.722Z,75.08
2022-12-19T05:25:50.368Z,75.78
2022-12-19T05:27:52.259Z,75.10
2022-12-19T05:29:55.156Z,75.31
2022-12-19T05:31:57.088Z,75.11
2022-12-19T05:33:59.539Z,74.72
2022-12-19T05:36:02.821Z,74.55
2022-12-19T05:38:05.118Z,75.67
2022-12-19T05:40:07.691Z,75.21
2022-12-19T05:42:12.301Z,75.26
2022-12-19T05:44:15.589Z,74.25
2022-12-19T05:46:18.328Z,74.16
2022-12-19T05:48:20.243Z,73.86
2022-12-19T05:50:22.105Z,74.32
2022-12-19T05:52:24.893Z,74.70
2022-12-19T05:54:27.046Z,74.92
2022-12-19T05:56:28.999Z,74.43
2022-12-19T05:58:31.162Z,74.81
2022-12-19T06:00:33.059Z,74.73
2022-12-19T06:02:35.470Z,74.58
2022-12-19T06:04:37.457Z,74.48
2022-12-19T06:06:39.474Z,74.25
2022-12-19T06:08:41.880Z,75.02
2022-12-19T06:10:43.747Z,74.73
2022-12-19T06:12:46.766Z,74.76
2022-12-19T06:14:49.705Z,74.88
2022-12-19T06:16:51.618Z,74.84
2022-12-19T06:18:53.624Z,74.76
2022-12-19T06:21:03.019Z,74.79
2022-12-19T06:23:04.925Z,74.75
2022-12-19T06:25:07.218Z,74.57
2022-12-19T06:27:09.160Z,75.07
2022-12-19T06:29:11.122Z,74.36
2022-12-19T06:31:13.704Z,74.30
2022-12-19T06:33:15.750Z,74.24
2022-12-19T06:35:17.857Z,74.27
2022-12-19T06:37:19.850Z,74.21
2022-12-19T06:39:22.632Z,74.69
2022-12-19T06:41:44.758Z,74.73
2022-12-19T06:43:53.188Z,74.39
2022-12-19T06:45:58.421Z,74.50
2022-12-19T06:48:00.601Z,74.77
2022-12-19T06:50:02.651Z,74.21
2022-12-19T06:52:09.023Z,74.43
2022-12-19T06:54:14.998Z,74.40
2022-12-19T06:56:17.895Z,74.68
2022-12-19T06:58:24.094Z,73.79
2022-12-19T07:00:26.433Z,73.44
2022-12-19T07:02:31.735Z,73.78
2022-12-19T07:04:38.423Z,73.68
2022-12-19T07:06:43.466Z,73.98
2022-12-19T07:08:49.562Z,74.13
2022-12-19T07:10:53.164Z,73.47
2022-12-19T07:12:56.336Z,73.45
2022-12-19T07:14:59.389Z,73.65
2022-12-19T07:17:03.263Z,74.00
2022-12-19T07:19:07.580Z,73.68
2022-12-19T07:21:14.359Z,73.49
2022-12-19T07:23:21.253Z,73.59
2022-12-19T07:25:23.296Z,73.85
2022-12-19T07:27:35.201Z,73.35
2022-12-19T07:29:38.046Z,73.45
2022-12-19T07:31:40.303Z,73.46
2022-12-19T07:33:42.310Z,73.29
2022-12-19T07:35:44.304Z,73.76
2022-12-19T07:37:50.419Z,73.68
2022-12-19T07:39:53.331Z,73.39
2022-12-19T07:41:55.312Z,73.54
2022-12-19T07:43:58.252Z,73.64
2022-12-19T07:46:02.287Z,73.86
2022-12-19T07:48:06.048Z,72.56
2022-12-19T07:50:10.139Z,73.10
2022-12-19T07:52:12.088Z,72.62
2022-12-19T07:54:15.054Z,72.62
2022-12-19T07:56:17.576Z,72.43
2022-12-19T07:58:21.006Z,72.12
2022-12-19T08:00:23.708Z,71.63
2022-12-19T08:02:25.725Z,71.42
2022-12-19T08:04:28.759Z,71.19
2022-12-19T08:06:30.837Z,71.30
2022-12-19T08:08:33.682Z,70.53
2022-12-19T08:10:35.655Z,71.13
2022-12-19T08:12:40.001Z,70.83
2022-12-19T08:14:41.969Z,70.12
2022-12-19T08:17:11.440Z,69.37
2022-12-19T08:19:05.766Z,68.75
2022-12-19T08:21:08.709Z,68.23
2022-12-19T08:23:10.711Z,68.80
2022-12-19T08:25:13.627Z,68.48
2022-12-19T08:27:19.143Z,68.82
2022-12-19T08:29:21.244Z,68.79
2022-12-19T08:31:25.654Z,67.49
2022-12-19T08:33:27.757Z,68.39
2022-12-19T08:35:30.212Z,67.21
2022-12-19T08:37:32.237Z,67.50
2022-12-19T08:39:35.244Z,66.58
2022-12-19T08:41:37.621Z,65.53
2022-12-19T08:43:42.715Z,64.93
2022-12-19T08:45:50.214Z,64.82
2022-12-19T08:47:57.145Z,64.60
2022-12-19T08:50:01.521Z,64.61
2022-12-19T08:52:03.696Z,64.40
2022-12-19T08:54:07.882Z,63.86
2022-12-19T08:56:19.893Z,63.38
2022-12-19T08:58:22.115Z,64.11
2022-12-19T09:00:25.023Z,63.75
2022-12-19T09:02:27.846Z,63.32
2022-12-19T09:05:58.787Z,62.69
2022-12-19T09:06:52.402Z,62.51
2022-12-19T09:08:54.759Z,63.23
2022-12-19T09:11:08.208Z,62.77
2022-12-19T09:13:12.400Z,62.92
2022-12-19T09:15:14.405Z,62.17
2022-12-19T09:17:16.449Z,62.39
2022-12-19T09:19:18.637Z,62.96
2022-12-19T09:21:23.486Z,62.46
2022-12-19T09:23:32.493Z,61.93
2022-12-19T09:25:34.634Z,61.31
2022-12-19T09:28:17.465Z,62.13
2022-12-19T09:29:59.934Z,61.63
2022-12-19T09:32:01.962Z,62.23
2022-12-19T09:34:04.693Z,61.70
2022-12-19T09:36:09.866Z,61.45
2022-12-19T09:38:12.960Z,61.60
2022-12-19T09:40:17.579Z,60.53
2022-12-19T09:42:40.792Z,60.20
2022-12-19T09:44:46.487Z,60.31
2022-12-19T09:47:04.464Z,60.17
2022-12-19T09:49:35.715Z,59.99
2022-12-19T09:52:03.328Z,60.40
2022-12-19T09:54:28.603Z,60.54
2022-12-19T09:56:46.365Z,60.53
2022-12-19T09:58:57.552Z,59.61
2022-12-19T10:01:06.144Z,60.10
2022-12-19T10:03:22.327Z,59.79
2022-12-19T10:06:32.728Z,60.26
2022-12-19T10:08:20.176Z,60.03
2022-12-19T10:12:41.189Z,59.76
2022-12-19T10:13:52.212Z,58.50
2022-12-19T10:16:33.296Z,59.11
2022-12-19T10:18:42.636Z,59.14
2022-12-19T10:21:03.299Z,59.31
2022-12-19T10:23:18.459Z,59.04
2022-12-19T10:25:42.323Z,58.75
2022-12-19T10:28:00.529Z,57.87
2022-12-19T10:30:13.163Z,58.19
2022-12-19T10:32:51.515Z,58.25
2022-12-19T10:34:54.502Z,59.77
2022-12-19T10:37:26.748Z,59.65
2022-12-19T10:40:04.092Z,58.62
2022-12-19T10:42:30.592Z,58.67
2022-12-19T10:44:36.721Z,59.54
2022-12-19T10:46:48.203Z,59.50
2022-12-19T10:48:52.948Z,59.87
2022-12-19T10:50:54.931Z,60.92
2022-12-19T10:53:08.671Z,61.11
2022-12-19T10:55:38.001Z,60.63
2022-12-19T10:57:40.414Z,60.52
2022-12-19T11:00:17.099Z,60.70
2022-12-19T11:02:33.482Z,60.04
2022-12-19T11:04:37.190Z,60.67
2022-12-19T11:06:45.477Z,61.70
2022-12-19T11:08:47.506Z,60.64
2022-12-19T11:13:15.507Z,60.03
2022-12-19T11:19:50.056Z,59.11
2022-12-19T11:19:50.797Z,57.79
2022-12-19T11:25:25.172Z,57.96
2022-12-19T11:29:33.018Z,56.87
2022-12-19T11:30:09.323Z,57.76
2022-12-19T11:30:47.997Z,60.13
2022-12-19T11:30:48.671Z,60.85
2022-12-19T11:33:10.659Z,59.39
2022-12-19T11:35:36.584Z,59.01
2022-12-19T11:37:48.216Z,58.12
2022-12-19T11:40:02.267Z,58.52
2022-12-19T11:42:20.069Z,58.25
2022-12-19T11:44:48.791Z,58.06
2022-12-19T11:47:06.972Z,59.04
2022-12-19T11:49:31.423Z,58.05
2022-12-19T11:51:48.618Z,58.89
2022-12-19T11:54:23.212Z,58.71
2022-12-19T11:56:28.040Z,58.24
2022-12-19T11:58:30.263Z,59.23
2022-12-19T12:00:33.939Z,58.45
2022-12-19T12:03:05.313Z,58.51
2022-12-19T12:05:42.404Z,59.23
2022-12-19T12:08:00.977Z,58.85
2022-12-19T12:17:27.166Z,59.25
2022-12-19T12:21:51.783Z,59.92
2022-12-19T12:30:16.392Z,59.84
2022-12-19T12:31:06.801Z,59.51
2022-12-19T12:31:27.901Z,59.50
2022-12-19T12:31:29.546Z,59.46
2022-12-19T12:31:44.390Z,59.25
2022-12-19T12:31:57.751Z,59.79
2022-12-19T12:35:28.858Z,58.41
2022-12-19T12:39:55.293Z,59.60
2022-12-19T12:42:16.341Z,58.78
2022-12-19T12:44:22.635Z,59.01
2022-12-19T12:47:05.386Z,59.03
2022-12-19T12:49:24.436Z,59.60
2022-12-19T12:51:27.720Z,59.78
2022-12-19T12:53:37.535Z,59.69
2022-12-19T12:55:43.092Z,59.62
2022-12-19T12:57:45.120Z,58.96
2022-12-19T12:59:48.072Z,59.41
2022-12-19T13:02:02.214Z,59.27
2022-12-19T13:04:19.769Z,59.00
2022-12-19T13:06:48.352Z,59.10
2022-12-19T13:08:53.963Z,59.18
2022-12-19T13:11:00.389Z,59.49
2022-12-19T13:13:19.787Z,59.88
2022-12-19T13:15:28.663Z,59.26
2022-12-19T13:17:33.473Z,59.69
2022-12-19T13:19:57.815Z,59.67
2022-12-19T13:22:22.751Z,60.00
2022-12-19T13:24:24.748Z,60.40
2022-12-19T13:26:59.242Z,60.26
2022-12-19T13:29:34.362Z,60.82
2022-12-19T13:31:36.592Z,60.74
2022-12-19T13:33:56.050Z,61.31
2022-12-19T13:39:52.391Z,64.42
2022-12-19T13:39:54.402Z,64.48
2022-12-19T13:41:01.435Z,64.42
2022-12-19T13:43:24.455Z,64.24
2022-12-19T13:45:30.939Z,63.41
2022-12-19T13:47:36.944Z,62.49
2022-12-19T13:49:39.284Z,62.78
2022-12-19T13:51:57.107Z,62.54
2022-12-19T13:54:00.066Z,62.39
2022-12-19T13:56:05.177Z,61.96
2022-12-19T13:58:08.723Z,62.64
2022-12-19T14:00:16.815Z,63.29
2022-12-19T14:02:27.629Z,62.37
2022-12-19T14:04:32.554Z,62.54
2022-12-19T14:06:46.269Z,62.53
2022-12-19T14:09:20.483Z,62.59
2022-12-19T14:11:37.234Z,63.71
2022-12-19T14:14:27.962Z,63.28
2022-12-19T14:16:43.345Z,63.57
2022-12-19T14:18:50.765Z,63.43
2022-12-19T14:22:03.940Z,64.68
2022-12-19T14:23:43.754Z,63.92
2022-12-19T14:28:27.677Z,63.93
2022-12-19T14:28:29.244Z,64.15
2022-12-19T14:30:35.148Z,64.85
2022-12-19T14:33:45.140Z,64.09
2022-12-19T14:36:06.875Z,64.88
2022-12-19T14:38:12.529Z,64.84
2022-12-19T14:40:25.143Z,64.75
2022-12-19T14:43:59.873Z,64.62
2022-12-19T14:52:34.427Z,65.04
2022-12-19T14:53:08.459Z,64.49
2022-12-19T14:54:07.297Z,65.51
2022-12-19T14:54:37.733Z,65.05
2022-12-19T14:56:12.224Z,64.73
2022-12-19T14:58:54.885Z,65.06
2022-12-19T15:01:10.066Z,65.50
2022-12-19T15:03:15.709Z,65.43
2022-12-19T15:05:20.561Z,65.74
2022-12-19T15:07:27.140Z,65.70
2022-12-19T15:11:01.101Z,65.38
2022-12-19T15:14:47.270Z,65.67
2022-12-19T15:14:59.023Z,65.83
2022-12-19T15:17:21.206Z,65.37
2022-12-19T15:19:25.547Z,65.86
2022-12-19T15:21:30.075Z,65.85
2022-12-19T15:23:32.986Z,66.34
2022-12-19T15:26:02.735Z,66.08
2022-12-19T15:27:57.371Z,66.23
2022-12-19T15:30:02.520Z,66.09
2022-12-19T15:32:04.624Z,65.81
2022-12-19T15:34:38.020Z,65.86
2022-12-19T15:36:42.397Z,65.91
2022-12-19T15:38:44.481Z,65.86
2022-12-19T15:40:50.033Z,66.88
2022-12-19T15:42:57.901Z,67.48
2022-12-19T15:45:01.348Z,67.60
2022-12-19T15:47:06.520Z,68.01
2022-12-19T15:49:15.697Z,68.21
2022-12-19T15:51:18.046Z,68.17
2022-12-19T15:53:40.229Z,67.61
2022-12-19T15:55:44.063Z,67.12
2022-12-19T15:58:00.002Z,67.23
2022-12-19T16:00:05.526Z,67.09
2022-12-19T16:02:37.524Z,66.49
2022-12-19T16:04:54.585Z,66.62
2022-12-19T16:07:01.956Z,66.45
2022-12-19T16:09:17.705Z,66.10
2022-12-19T16:11:23.507Z,66.31
2022-12-19T16:13:29.036Z,66.53
2022-12-19T16:15:34.607Z,66.53
2022-12-19T16:17:38.381Z,67.03
2022-12-19T16:19:45.707Z,66.75
2022-12-19T16:21:47.981Z,66.96
2022-12-19T16:23:50.107Z,67.10
2022-12-19T16:25:53.506Z,67.13
2022-12-19T16:27:58.603Z,66.35
2022-12-19T16:30:19.255Z,67.00
2022-12-19T16:32:36.852Z,67.12
2022-12-19T16:34:38.916Z,66.47
2022-12-19T16:36:43.779Z,66.55
2022-12-19T16:38:46.079Z,66.28
2022-12-19T16:40:51.326Z,67.00
2022-12-19T16:43:04.809Z,66.20
2022-12-19T16:45:29.105Z,67.05
2022-12-19T16:47:31.203Z,66.90
2022-12-19T16:49:33.303Z,66.73
2022-12-19T16:51:35.984Z,66.84
2022-12-19T16:53:38.003Z,66.67
2022-12-19T16:55:40.535Z,67.11
2022-12-19T16:57:45.281Z,66.46
2022-12-19T16:59:49.143Z,67.01
2022-12-19T17:01:54.039Z,67.10
2022-12-19T17:03:56.483Z,67.05
2022-12-19T17:06:18.482Z,67.19
2022-12-19T17:08:21.505Z,67.20
2022-12-19T17:10:29.821Z,66.87
2022-12-19T17:12:32.040Z,66.92
2022-12-19T17:14:34.156Z,66.95
2022-12-19T17:16:36.929Z,66.43
2022-12-19T17:18:42.113Z,66.55
2022-12-19T17:20:46.750Z,67.33
2022-12-19T17:22:48.771Z,66.94
2022-12-19T17:24:54.683Z,66.76
2022-12-19T17:26:58.741Z,67.29
2022-12-19T17:29:00.743Z,67.00
2022-12-19T17:31:06.496Z,67.31
2022-12-19T17:33:15.624Z,67.44
2022-12-19T17:35:25.851Z,67.23
2022-12-19T17:37:30.060Z,68.13
2022-12-19T17:39:35.031Z,66.70
2022-12-19T17:41:37.125Z,66.83
2022-12-19T17:43:39.098Z,66.92
2022-12-19T17:45:41.837Z,67.49
2022-12-19T17:47:46.342Z,66.62
2022-12-19T17:49:48.887Z,67.04
2022-12-19T17:51:54.853Z,66.94
2022-12-19T17:53:57.800Z,66.96
2022-12-19T17:56:00.719Z,67.45
2022-12-19T17:58:02.877Z,66.90
2022-12-19T18:00:05.263Z,67.34
2022-12-19T18:02:20.211Z,67.03
2022-12-19T18:04:24.493Z,66.15
2022-12-19T18:06:26.678Z,66.82
2022-12-19T18:08:32.023Z,67.27
2022-12-19T18:10:34.065Z,66.20
2022-12-19T18:12:36.124Z,66.74
2022-12-19T18:14:38.233Z,66.58
2022-12-19T18:16:40.385Z,67.32
2022-12-19T18:18:42.765Z,67.30
2022-12-19T18:20:45.106Z,67.23
2022-12-19T18:22:48.449Z,66.72
2022-12-19T18:24:50.557Z,66.91
2022-12-19T18:26:52.955Z,66.98
2022-12-19T18:28:55.148Z,66.69
2022-12-19T18:31:02.308Z,66.96
2022-12-19T18:33:06.569Z,67.19
2022-12-19T18:35:17.470Z,66.40
2022-12-19T18:37:19.815Z,66.57
2022-12-19T18:39:27.937Z,66.04
2022-12-19T18:41:30.094Z,67.43
2022-12-19T18:43:33.738Z,67.09
2022-12-19T18:45:41.699Z,66.89
2022-12-19T18:47:51.332Z,66.66
2022-12-19T18:49:53.970Z,66.91
2022-12-19T18:51:56.621Z,66.11
2022-12-19T18:53:58.925Z,66.53
2022-12-19T18:56:03.110Z,66.86
2022-12-19T18:58:05.183Z,66.36
2022-12-19T19:00:09.183Z,65.79
2022-12-19T19:02:27.773Z,66.07
2022-12-19T19:04:30.761Z,66.72
2022-12-19T19:06:38.123Z,66.23
2022-12-19T19:08:41.158Z,66.43
2022-12-19T19:10:44.320Z,65.74
2022-12-19T19:12:48.748Z,66.19
2022-12-19T19:14:53.099Z,66.43
2022-12-19T19:16:56.582Z,66.62
2022-12-19T19:19:01.429Z,66.38
2022-12-19T19:21:04.922Z,66.75
2022-12-19T19:23:10.688Z,66.98
2022-12-19T19:25:12.910Z,66.76
2022-12-19T19:27:16.416Z,67.29
2022-12-19T19:29:23.513Z,66.49
2022-12-19T19:31:28.290Z,67.49
2022-12-19T19:33:38.456Z,67.05
2022-12-19T19:35:45.835Z,67.08
2022-12-19T19:37:52.383Z,68.06
2022-12-19T19:39:55.808Z,67.22
2022-12-19T19:41:58.232Z,66.34
2022-12-19T19:44:04.538Z,67.59
2022-12-19T19:46:06.697Z,66.83
2022-12-19T19:48:08.974Z,67.40
2022-12-19T19:50:12.762Z,66.85
2022-12-19T19:52:16.901Z,66.94
2022-12-19T19:54:19.784Z,67.14
2022-12-19T19:56:22.392Z,66.60
2022-12-19T19:58:27.326Z,66.16
2022-12-19T20:00:29.559Z,66.60
2022-12-19T20:02:31.916Z,66.62
2022-12-19T20:04:35.149Z,66.59
2022-12-19T20:06:37.463Z,66.02
2022-12-19T20:08:40.908Z,66.59
2022-12-19T20:10:44.371Z,66.13
2022-12-19T20:12:46.940Z,66.31
2022-12-19T20:14:49.004Z,66.90
2022-12-19T20:16:51.379Z,65.84
2022-12-19T20:18:53.989Z,66.36
2022-12-19T20:20:57.764Z,67.07
2022-12-19T20:23:00.006Z,66.93
2022-12-19T20:25:02.449Z,67.07
2022-12-19T20:27:05.010Z,66.86
2022-12-19T20:29:08.092Z,66.84
2022-12-19T20:31:11.345Z,67.42
2022-12-19T20:33:13.991Z,66.81
2022-12-19T20:35:16.423Z,67.34
2022-12-19T20:37:19.202Z,67.27
2022-12-19T20:39:22.446Z,66.85
2022-12-19T20:41:25.656Z,67.37
2022-12-19T20:43:27.875Z,67.35
2022-12-19T20:45:32.450Z,67.19
2022-12-19T20:47:40.594Z,67.40
2022-12-19T20:49:42.562Z,67.29
2022-12-19T20:51:45.002Z,68.00
2022-12-19T20:53:47.802Z,67.55
2022-12-19T20:55:58.273Z,67.19
2022-12-19T20:58:00.726Z,67.17
2022-12-19T21:00:07.880Z,67.95
2022-12-19T21:02:11.465Z,67.46
2022-12-19T21:04:15.720Z,66.88
2022-12-19T21:06:20.040Z,67.00
2022-12-19T21:08:22.818Z,67.76
2022-12-19T21:10:25.841Z,67.13
2022-12-19T21:12:29.589Z,67.68
2022-12-19T21:14:31.809Z,67.56
2022-12-19T21:16:39.795Z,67.91
2022-12-19T21:18:43.172Z,67.57
2022-12-19T21:20:45.394Z,67.20
2022-12-19T21:22:53.410Z,68.13
2022-12-19T21:24:55.733Z,68.35
2022-12-19T21:26:58.407Z,68.69
2022-12-19T21:29:00.930Z,69.63
2022-12-19T21:31:12.061Z,69.52
2022-12-19T21:33:14.139Z,69.00
2022-12-19T21:35:16.171Z,69.20
2022-12-19T21:37:18.169Z,69.44
2022-12-19T21:39:25.534Z,69.99
2022-12-19T21:41:29.570Z,69.39
2022-12-19T21:43:35.563Z,70.14
2022-12-19T21:45:37.423Z,69.06
2022-12-19T21:47:40.340Z,70.34
2022-12-19T21:49:42.413Z,69.03
2022-12-19T21:51:44.340Z,70.25
2022-12-19T21:53:47.499Z,70.54
2022-12-19T21:55:50.422Z,70.36
2022-12-19T21:57:52.427Z,69.73
2022-12-19T21:59:54.456Z,70.00
2022-12-19T22:01:56.543Z,70.67
2022-12-19T22:04:00.709Z,70.09
2022-12-19T22:06:06.075Z,70.26
2022-12-19T22:08:10.967Z,70.15
2022-12-19T22:10:14.081Z,70.38
2022-12-19T22:12:16.006Z,69.42
2022-12-19T22:14:18.572Z,69.12
2022-12-19T22:16:20.527Z,69.28
2022-12-19T22:18:22.532Z,68.46
2022-12-19T22:20:24.406Z,70.34
2022-12-19T22:22:27.352Z,69.48
2022-12-19T22:24:29.367Z,69.34
2022-12-19T22:26:31.991Z,69.70
2022-12-19T22:28:36.763Z,69.19
2022-12-19T22:30:39.750Z,70.28
2022-12-19T22:32:41.875Z,69.45
2022-12-19T22:34:47.563Z,69.87
2022-12-19T22:36:49.667Z,69.47
2022-12-19T22:38:52.321Z,70.24
2022-12-19T22:40:54.220Z,70.06
2022-12-19T22:42:56.104Z,70.24
2022-12-19T22:44:58.125Z,70.27
2022-12-19T22:47:00.138Z,69.99
2022-12-19T22:49:04.733Z,69.57
2022-12-19T22:51:07.571Z,70.37
2022-12-19T22:53:12.710Z,70.61
2022-12-19T22:55:16.139Z,70.22
2022-12-19T22:57:18.109Z,71.49
2022-12-19T22:59:20.162Z,71.52
2022-12-19T23:01:28.050Z,71.85
2022-12-19T23:03:31.536Z,71.45
2022-12-19T23:05:36.675Z,72.01
2022-12-19T23:07:38.519Z,71.89
2022-12-19T23:09:40.439Z,71.62
2022-12-19T23:11:44.358Z,71.97
2022-12-19T23:13:47.934Z,71.93
2022-12-19T23:15:49.835Z,71.79
2022-12-19T23:17:51.840Z,71.97
2022-12-19T23:19:53.804Z,71.71
2022-12-19T23:21:55.699Z,73.04
2022-12-19T23:23:58.570Z,71.96
2022-12-19T23:26:00.833Z,72.40
2022-12-19T23:28:03.146Z,72.88
2022-12-19T23:30:05.801Z,72.99
2022-12-19T23:32:07.997Z,72.62
2022-12-19T23:34:10.783Z,72.80
2022-12-19T23:36:13.007Z,73.67
2022-12-19T23:38:15.947Z,73.46
2022-12-19T23:40:18.036Z,73.40
2022-12-19T23:42:21.137Z,74.00
2022-12-19T23:44:23.148Z,73.46
2022-12-19T23:46:27.169Z,73.55
2022-12-19T23:48:29.114Z,73.46
2022-12-19T23:50:31.150Z,73.37
2022-12-19T23:52:33.123Z,73.76
2022-12-19T23:54:35.157Z,73.17
2022-12-19T23:56:38.169Z,73.73
2022-12-19T23:58:40.585Z,74.34
